Time;durP1;ratioP1;P1;durP2;ratioP2;P2;SDS_P1;SDS_P2;PMS_P1;PMS_P2;Temp;Humidity;BMP_temperature;BMP_pressure;BME280_temperature;BME280_humidity;BME280_pressure;Samples;Min_cycle;Max_cycle;Signal;HPM_P1;HPM_P2
2022/03/10 00:00:12;;;;;;;0.00;0.00;;;;;;;;;;5028844;28;20517;-63
2022/03/10 00:02:37;;;;;;;0.00;0.00;;;;;;;;;;5028732;28;20017;-62
2022/03/10 00:05:03;;;;;;;0.30;0.30;;;;;;;;;;5029181;28;20029;-62
2022/03/10 00:07:28;;;;;;;0.00;0.00;;;;;;;;;;5030406;28;20095;-62
2022/03/10 00:09:53;;;;;;;0.00;0.00;;;;;;;;;;5031587;28;20386;-61
2022/03/10 00:12:19;;;;;;;0.00;0.00;;;;;;;;;;5027934;28;20033;-62
2022/03/10 00:14:44;;;;;;;0.00;0.00;;;;;;;;;;5029305;28;20375;-62
2022/03/10 00:17:09;;;;;;;1.08;1.08;;;;;;;;;;5028489;28;20417;-63
2022/03/10 00:19:34;;;;;;;0.00;0.00;;;;;;;;;;5029161;28;20064;-62
2022/03/10 00:22:00;;;;;;;0.00;0.00;;;;;;;;;;5031798;28;20032;-63
2022/03/10 00:24:25;;;;;;;0.00;0.00;;;;;;;;;;5011412;28;20029;-63
2022/03/10 00:26:50;;;;;;;0.00;0.00;;;;;;;;;;5028828;28;20041;-62
2022/03/10 00:29:15;;;;;;;0.00;0.00;;;;;;;;;;5028700;28;20025;-62
2022/03/10 00:31:41;;;;;;;2.45;2.38;;;;;;;;;;5031447;28;20028;-62
2022/03/10 00:34:06;;;;;;;0.00;0.00;;;;;;;;;;5030177;28;20096;-62
2022/03/10 00:36:31;;;;;;;0.00;0.00;;;;;;;;;;5030468;28;20021;-62
2022/03/10 00:38:57;;;;;;;0.00;0.00;;;;;;;;;;5028619;28;20025;-63
2022/03/10 00:41:22;;;;;;;0.00;0.00;;;;;;;;;;5028409;28;20030;-62
2022/03/10 00:43:47;;;;;;;0.00;0.00;;;;;;;;;;5028746;28;20032;-64
2022/03/10 00:46:12;;;;;;;0.00;0.00;;;;;;;;;;5028519;28;20107;-63
2022/03/10 00:48:38;;;;;;;0.00;0.00;;;;;;;;;;5031544;28;20087;-62
2022/03/10 00:51:04;;;;;;;0.00;0.00;;;;;;;;;;5028389;28;20040;-62
2022/03/10 00:53:29;;;;;;;0.00;0.00;;;;;;;;;;5029047;28;20016;-63
2022/03/10 00:55:54;;;;;;;0.22;0.22;;;;;;;;;;5027906;28;20277;-63
2022/03/10 00:58:19;;;;;;;0.00;0.00;;;;;;;;;;5028282;28;20096;-62
2022/03/10 01:00:45;;;;;;;0.25;0.25;;;;;;;;;;5029487;28;20038;-63
2022/03/10 01:03:10;;;;;;;0.00;0.00;;;;;;;;;;5028716;28;20036;-63
2022/03/10 01:05:35;;;;;;;0.00;0.00;;;;;;;;;;5029482;28;20025;-62
2022/03/10 01:08:00;;;;;;;0.00;0.00;;;;;;;;;;5027079;28;20033;-63
2022/03/10 01:10:26;;;;;;;0.00;0.00;;;;;;;;;;5027646;28;20112;-63
2022/03/10 01:12:51;;;;;;;0.00;0.00;;;;;;;;;;5028555;28;20181;-62
2022/03/10 01:15:19;;;;;;;0.00;0.00;;;;;;;;;;5027422;28;20056;-62
2022/03/10 01:17:44;;;;;;;0.00;0.00;;;;;;;;;;5030327;28;20029;-62
2022/03/10 01:20:09;;;;;;;0.10;0.10;;;;;;;;;;5027841;28;20502;-62
2022/03/10 01:22:35;;;;;;;0.00;0.00;;;;;;;;;;5028211;28;20030;-62
2022/03/10 01:25:00;;;;;;;0.13;0.13;;;;;;;;;;5029572;28;20036;-62
2022/03/10 01:27:25;;;;;;;0.00;0.00;;;;;;;;;;5028174;28;20025;-62
2022/03/10 01:29:51;;;;;;;0.20;0.20;;;;;;;;;;5031014;28;20029;-63
2022/03/10 01:32:16;;;;;;;0.00;0.00;;;;;;;;;;5030346;28;20026;-63
2022/03/10 01:34:41;;;;;;;0.38;0.38;;;;;;;;;;5031958;28;20451;-63
2022/03/10 01:37:07;;;;;;;0.50;0.50;;;;;;;;;;5030560;28;20017;-62
2022/03/10 01:39:32;;;;;;;0.10;0.10;;;;;;;;;;5032197;28;20029;-62
2022/03/10 01:41:58;;;;;;;0.15;0.15;;;;;;;;;;5031643;28;20030;-63
2022/03/10 01:44:24;;;;;;;13.38;2.95;;;;;;;;;;5031436;28;20033;-62
2022/03/10 01:46:49;;;;;;;0.25;0.25;;;;;;;;;;5032236;28;20056;-62
2022/03/10 01:49:15;;;;;;;0.00;0.00;;;;;;;;;;5030980;28;20029;-63
2022/03/10 01:51:40;;;;;;;2.45;2.35;;;;;;;;;;5031336;28;20025;-63
2022/03/10 01:54:06;;;;;;;0.52;0.52;;;;;;;;;;5032276;28;20024;-63
2022/03/10 01:56:32;;;;;;;0.10;0.10;;;;;;;;;;5032795;28;20021;-63
2022/03/10 01:58:58;;;;;;;1.40;1.40;;;;;;;;;;5012722;28;20021;-63
2022/03/10 02:01:24;;;;;;;0.08;0.08;;;;;;;;;;5030642;28;20061;-63
2022/03/10 02:03:50;;;;;;;0.00;0.00;;;;;;;;;;5036033;28;20064;-62
2022/03/10 02:06:15;;;;;;;0.00;0.00;;;;;;;;;;5030931;28;20025;-63
2022/03/10 02:11:25;;;;;;;0.00;0.00;;;;;;;;;;5030161;28;20048;-63
2022/03/10 02:13:50;;;;;;;0.13;0.13;;;;;;;;;;5031121;28;20434;-63
2022/03/10 02:19:00;;;;;;;1.65;1.13;;;;;;;;;;5031010;28;20047;-62
2022/03/10 02:21:26;;;;;;;0.75;0.15;;;;;;;;;;5030364;28;20026;-63
2022/03/10 02:23:51;;;;;;;0.85;0.85;;;;;;;;;;5032145;28;20394;-61
2022/03/10 02:26:17;;;;;;;15.02;14.43;;;;;;;;;;5029019;28;20067;-62
2022/03/10 02:28:42;;;;;;;0.00;0.00;;;;;;;;;;5030932;28;20021;-63
2022/03/10 02:31:08;;;;;;;0.65;0.55;;;;;;;;;;5029935;28;20018;-62
2022/03/10 02:33:34;;;;;;;0.00;0.00;;;;;;;;;;5030713;28;20021;-63
2022/03/10 02:36:00;;;;;;;0.00;0.00;;;;;;;;;;5031008;28;20402;-62
2022/03/10 02:38:25;;;;;;;0.00;0.00;;;;;;;;;;5012095;28;20037;-63
2022/03/10 02:40:51;;;;;;;0.00;0.00;;;;;;;;;;5030775;28;20116;-63
2022/03/10 02:43:17;;;;;;;0.00;0.00;;;;;;;;;;5029073;28;20021;-63
2022/03/10 02:45:42;;;;;;;0.00;0.00;;;;;;;;;;5030776;28;20500;-63
2022/03/10 02:48:07;;;;;;;0.00;0.00;;;;;;;;;;5029910;28;20048;-63
2022/03/10 02:50:33;;;;;;;0.00;0.00;;;;;;;;;;5030738;28;20108;-61
2022/03/10 02:52:58;;;;;;;0.00;0.00;;;;;;;;;;5030362;28;20413;-63
2022/03/10 02:55:23;;;;;;;0.05;0.05;;;;;;;;;;5029092;28;20100;-61
2022/03/10 02:57:49;;;;;;;0.00;0.00;;;;;;;;;;5029910;28;20037;-61
2022/03/10 03:00:15;;;;;;;0.00;0.00;;;;;;;;;;5030061;28;20040;-62
2022/03/10 03:02:40;;;;;;;0.00;0.00;;;;;;;;;;5030434;28;20029;-62
2022/03/10 03:05:06;;;;;;;0.08;0.08;;;;;;;;;;5029665;28;20025;-63
2022/03/10 03:07:32;;;;;;;0.10;0.10;;;;;;;;;;5030331;28;20017;-63
2022/03/10 03:09:57;;;;;;;0.30;0.25;;;;;;;;;;5030632;28;20104;-63
2022/03/10 03:12:22;;;;;;;0.15;0.15;;;;;;;;;;5029457;28;20447;-63
2022/03/10 03:14:47;;;;;;;2.28;2.13;;;;;;;;;;5029841;28;20028;-63
2022/03/10 03:17:12;;;;;;;1.25;0.95;;;;;;;;;;5029607;28;20025;-62
2022/03/10 03:19:38;;;;;;;0.10;0.10;;;;;;;;;;5029721;28;20038;-63
2022/03/10 03:22:03;;;;;;;0.45;0.45;;;;;;;;;;5030031;28;20029;-63
2022/03/10 03:24:29;;;;;;;2.28;2.15;;;;;;;;;;5028320;28;20482;-63
2022/03/10 03:26:54;;;;;;;0.45;0.43;;;;;;;;;;5029841;28;20021;-62
2022/03/10 03:29:19;;;;;;;0.22;0.22;;;;;;;;;;5030955;28;20024;-62
2022/03/10 03:31:45;;;;;;;0.10;0.10;;;;;;;;;;5031205;28;20036;-62
2022/03/10 03:34:10;;;;;;;0.00;0.00;;;;;;;;;;5029555;28;20043;-63
2022/03/10 03:36:42;;;;;;;0.00;0.00;;;;;;;;;;5029425;28;20033;-63
2022/03/10 03:39:07;;;;;;;0.00;0.00;;;;;;;;;;5033667;28;20019;-62
2022/03/10 03:41:32;;;;;;;0.88;0.88;;;;;;;;;;5031949;28;20107;-62
2022/03/10 03:43:58;;;;;;;0.00;0.00;;;;;;;;;;5029346;28;20421;-63
2022/03/10 03:46:23;;;;;;;0.70;0.70;;;;;;;;;;5029523;28;20079;-63
2022/03/10 03:48:48;;;;;;;0.00;0.00;;;;;;;;;;5032127;28;20055;-63
2022/03/10 03:51:13;;;;;;;0.00;0.00;;;;;;;;;;5028856;28;20025;-63
2022/03/10 03:53:39;;;;;;;0.00;0.00;;;;;;;;;;5027516;28;20020;-63
2022/03/10 03:56:04;;;;;;;0.00;0.00;;;;;;;;;;5028977;28;20030;-63
2022/03/10 03:58:29;;;;;;;0.00;0.00;;;;;;;;;;5029376;28;20526;-63
2022/03/10 04:00:54;;;;;;;0.00;0.00;;;;;;;;;;5029297;28;20040;-63
2022/03/10 04:03:19;;;;;;;0.00;0.00;;;;;;;;;;5028809;28;20033;-63
2022/03/10 04:05:45;;;;;;;0.00;0.00;;;;;;;;;;5031469;28;20037;-63
2022/03/10 04:08:10;;;;;;;0.00;0.00;;;;;;;;;;5028949;28;20029;-61
2022/03/10 04:10:36;;;;;;;0.52;0.52;;;;;;;;;;5030494;28;20033;-62
2022/03/10 04:13:02;;;;;;;0.03;0.03;;;;;;;;;;5028921;28;20221;-62
2022/03/10 04:15:27;;;;;;;0.00;0.00;;;;;;;;;;5028610;28;20182;-63
2022/03/10 04:17:52;;;;;;;0.00;0.00;;;;;;;;;;5029180;28;20033;-63
2022/03/10 04:20:17;;;;;;;0.70;0.70;;;;;;;;;;5027542;28;20056;-63
2022/03/10 04:22:43;;;;;;;0.00;0.00;;;;;;;;;;5026820;28;20128;-63
2022/03/10 04:25:08;;;;;;;0.00;0.00;;;;;;;;;;5028201;28;20410;-63
2022/03/10 04:27:35;;;;;;;0.00;0.00;;;;;;;;;;5028966;28;20521;-63
2022/03/10 04:30:00;;;;;;;0.00;0.00;;;;;;;;;;5039781;28;20112;-63
2022/03/10 04:32:26;;;;;;;0.98;0.98;;;;;;;;;;5028387;28;20075;-63
2022/03/10 04:34:51;;;;;;;0.00;0.00;;;;;;;;;;5029204;28;20478;-63
2022/03/10 04:37:16;;;;;;;0.00;0.00;;;;;;;;;;5028520;28;20021;-63
2022/03/10 04:39:41;;;;;;;0.00;0.00;;;;;;;;;;5028933;28;20024;-63
2022/03/10 04:42:07;;;;;;;0.00;0.00;;;;;;;;;;5028052;28;20368;-62
2022/03/10 04:44:32;;;;;;;0.00;0.00;;;;;;;;;;5027857;28;20032;-63
2022/03/10 04:46:57;;;;;;;0.00;0.00;;;;;;;;;;5027898;28;20025;-62
2022/03/10 04:49:22;;;;;;;0.00;0.00;;;;;;;;;;5026754;28;20335;-62
2022/03/10 04:51:48;;;;;;;0.00;0.00;;;;;;;;;;5027876;28;20033;-62
2022/03/10 04:54:13;;;;;;;0.10;0.10;;;;;;;;;;5027771;28;20449;-63
2022/03/10 04:56:38;;;;;;;0.00;0.00;;;;;;;;;;5026940;28;20029;-63
2022/03/10 04:59:03;;;;;;;0.00;0.00;;;;;;;;;;5028004;28;20470;-62
2022/03/10 05:01:29;;;;;;;0.00;0.00;;;;;;;;;;5027059;28;20202;-63
2022/03/10 05:03:54;;;;;;;0.00;0.00;;;;;;;;;;5028706;28;20021;-62
2022/03/10 05:06:20;;;;;;;0.57;0.57;;;;;;;;;;5029586;28;20030;-62
2022/03/10 05:08:45;;;;;;;0.00;0.00;;;;;;;;;;5032464;28;20060;-62
2022/03/10 05:11:11;;;;;;;0.10;0.10;;;;;;;;;;5031426;28;20455;-62
2022/03/10 05:13:36;;;;;;;0.00;0.00;;;;;;;;;;5031590;28;20017;-62
2022/03/10 05:16:01;;;;;;;0.08;0.08;;;;;;;;;;5033591;28;20013;-62
2022/03/10 05:18:26;;;;;;;0.00;0.00;;;;;;;;;;5029301;28;20163;-63
2022/03/10 05:20:52;;;;;;;0.00;0.00;;;;;;;;;;5033584;28;20033;-63
2022/03/10 05:23:17;;;;;;;0.20;0.20;;;;;;;;;;5030949;28;20824;-63
2022/03/10 05:25:42;;;;;;;0.00;0.00;;;;;;;;;;5031661;28;20033;-63
2022/03/10 05:28:13;;;;;;;0.03;0.03;;;;;;;;;;5031678;28;20037;-62
2022/03/10 05:30:38;;;;;;;1.65;1.65;;;;;;;;;;5031443;28;20474;-63
2022/03/10 05:33:03;;;;;;;0.00;0.00;;;;;;;;;;5032021;28;20037;-63
2022/03/10 05:35:29;;;;;;;0.25;0.25;;;;;;;;;;5028855;28;20036;-61
2022/03/10 05:37:55;;;;;;;5.60;5.18;;;;;;;;;;5031118;28;20024;-62
2022/03/10 05:40:20;;;;;;;0.00;0.00;;;;;;;;;;5030212;28;20064;-63
2022/03/10 05:42:46;;;;;;;0.00;0.00;;;;;;;;;;5030536;28;20483;-63
2022/03/10 05:45:12;;;;;;;0.00;0.00;;;;;;;;;;5031179;28;20104;-63
2022/03/10 05:47:38;;;;;;;0.00;0.00;;;;;;;;;;5034497;28;20038;-63
2022/03/10 05:50:04;;;;;;;0.00;0.00;;;;;;;;;;5033018;28;20087;-62
2022/03/10 05:52:29;;;;;;;0.00;0.00;;;;;;;;;;5029690;28;20041;-65
2022/03/10 05:54:54;;;;;;;0.00;0.00;;;;;;;;;;5030946;28;20281;-63
2022/03/10 05:57:20;;;;;;;0.00;0.00;;;;;;;;;;5030484;28;20459;-63
2022/03/10 05:59:45;;;;;;;2.03;1.98;;;;;;;;;;5030572;28;20109;-63
2022/03/10 06:02:13;;;;;;;0.00;0.00;;;;;;;;;;5030401;28;20032;-63
2022/03/10 06:04:38;;;;;;;0.88;0.88;;;;;;;;;;5031028;28;20079;-62
2022/03/10 06:07:03;;;;;;;0.00;0.00;;;;;;;;;;5029993;28;20425;-63
2022/03/10 06:09:29;;;;;;;4.38;4.18;;;;;;;;;;5030302;28;20040;-63
2022/03/10 06:11:54;;;;;;;0.00;0.00;;;;;;;;;;5029779;28;20025;-63
2022/03/10 06:14:19;;;;;;;0.00;0.00;;;;;;;;;;5030409;28;20029;-63
2022/03/10 06:16:45;;;;;;;0.20;0.20;;;;;;;;;;5029223;28;20037;-64
2022/03/10 06:19:10;;;;;;;5.47;4.18;;;;;;;;;;5030390;28;20098;-65
2022/03/10 06:21:35;;;;;;;0.00;0.00;;;;;;;;;;5032441;28;20367;-65
2022/03/10 06:24:01;;;;;;;0.20;0.20;;;;;;;;;;5032454;28;20029;-64
2022/03/10 06:26:26;;;;;;;2.88;2.63;;;;;;;;;;5014103;28;20029;-63
2022/03/10 06:28:51;;;;;;;1.17;1.17;;;;;;;;;;5029890;28;20025;-63
2022/03/10 06:31:16;;;;;;;0.00;0.00;;;;;;;;;;5028866;28;20029;-64
2022/03/10 06:33:42;;;;;;;1.63;1.33;;;;;;;;;;5030110;28;20028;-64
2022/03/10 06:36:07;;;;;;;0.25;0.25;;;;;;;;;;5030145;28;20033;-64
2022/03/10 06:38:36;;;;;;;1.95;1.92;;;;;;;;;;5028855;28;20100;-64
2022/03/10 06:41:02;;;;;;;;;;;;;;;;;;5030558;28;20068;-64
2022/03/10 06:43:27;;;;;;;0.13;0.13;;;;;;;;;;5029476;28;19956;-63
2022/03/10 06:45:52;;;;;;;0.43;0.43;;;;;;;;;;5028113;28;20175;-64
2022/03/10 06:48:17;;;;;;;0.00;0.00;;;;;;;;;;5032408;28;20021;-65
2022/03/10 06:50:43;;;;;;;0.80;0.80;;;;;;;;;;5029460;28;20476;-65
2022/03/10 06:53:08;;;;;;;1.15;1.15;;;;;;;;;;5029493;28;20097;-65
2022/03/10 06:55:33;;;;;;;1.40;0.88;;;;;;;;;;5029512;28;20096;-65
2022/03/10 06:57:58;;;;;;;2.08;1.88;;;;;;;;;;5029594;28;20067;-64
2022/03/10 07:00:24;;;;;;;1.27;1.27;;;;;;;;;;5029251;28;20091;-63
2022/03/10 07:02:50;;;;;;;0.00;0.00;;;;;;;;;;5029350;28;20033;-64
2022/03/10 07:05:15;;;;;;;0.75;0.75;;;;;;;;;;5029272;28;20458;-64
2022/03/10 07:07:41;;;;;;;0.17;0.17;;;;;;;;;;5029206;28;20017;-63
2022/03/10 07:10:07;;;;;;;0.22;0.22;;;;;;;;;;5011204;28;20053;-64
2022/03/10 07:12:38;;;;;;;0.03;0.03;;;;;;;;;;5028815;28;20124;-63
2022/03/10 07:15:04;;;;;;;0.00;0.00;;;;;;;;;;5028324;28;20029;-63
2022/03/10 07:17:29;;;;;;;0.90;0.32;;;;;;;;;;5030330;28;20155;-63
2022/03/10 07:19:54;;;;;;;0.00;0.00;;;;;;;;;;5029433;28;20535;-64
2022/03/10 07:22:20;;;;;;;0.35;0.35;;;;;;;;;;5028456;28;20394;-63
2022/03/10 07:24:45;;;;;;;0.00;0.00;;;;;;;;;;5029302;28;20025;-64
2022/03/10 07:27:11;;;;;;;0.00;0.00;;;;;;;;;;5029221;28;20429;-64
2022/03/10 07:29:36;;;;;;;5.72;5.57;;;;;;;;;;5028158;28;20044;-64
2022/03/10 07:32:01;;;;;;;0.00;0.00;;;;;;;;;;5028542;28;20065;-63
2022/03/10 07:34:26;;;;;;;0.00;0.00;;;;;;;;;;5028435;28;20021;-63
2022/03/10 07:36:53;;;;;;;3.70;3.50;;;;;;;;;;5029354;28;20467;-63
2022/03/10 07:39:18;;;;;;;0.00;0.00;;;;;;;;;;5025130;28;20021;-64
2022/03/10 07:41:43;;;;;;;0.00;0.00;;;;;;;;;;5027270;28;20765;-63
2022/03/10 07:44:08;;;;;;;0.00;0.00;;;;;;;;;;5028811;28;20489;-64
2022/03/10 07:46:34;;;;;;;0.32;0.32;;;;;;;;;;5029183;28;20025;-63
2022/03/10 07:48:59;;;;;;;2.08;1.98;;;;;;;;;;5030039;28;20026;-62
2022/03/10 07:51:25;;;;;;;0.20;0.20;;;;;;;;;;5028864;28;20022;-64
2022/03/10 07:53:50;;;;;;;0.20;0.20;;;;;;;;;;5010898;28;20025;-63
2022/03/10 07:56:15;;;;;;;0.10;0.10;;;;;;;;;;5010288;28;20053;-63
2022/03/10 07:58:41;;;;;;;0.15;0.15;;;;;;;;;;5028077;28;20089;-64
2022/03/10 08:01:06;;;;;;;13.80;8.82;;;;;;;;;;5032858;28;20039;-63
2022/03/10 08:03:31;;;;;;;0.10;0.10;;;;;;;;;;5028443;28;20029;-63
2022/03/10 08:05:56;;;;;;;0.00;0.00;;;;;;;;;;5028322;28;20025;-63
2022/03/10 08:08:22;;;;;;;0.43;0.43;;;;;;;;;;5028267;28;20083;-63
2022/03/10 08:10:47;;;;;;;0.00;0.00;;;;;;;;;;5028502;28;20159;-64
2022/03/10 08:13:13;;;;;;;1.98;0.40;;;;;;;;;;5026603;28;20057;-63
2022/03/10 08:15:40;;;;;;;3.33;2.90;;;;;;;;;;5028525;28;20075;-63
2022/03/10 08:18:06;;;;;;;0.20;0.20;;;;;;;;;;5028535;28;20498;-64
2022/03/10 08:20:31;;;;;;;0.00;0.00;;;;;;;;;;5027244;28;20041;-63
2022/03/10 08:22:57;;;;;;;0.00;0.00;;;;;;;;;;5028425;28;20481;-64
2022/03/10 08:25:22;;;;;;;0.00;0.00;;;;;;;;;;5028801;28;20025;-63
2022/03/10 08:27:47;;;;;;;0.00;0.00;;;;;;;;;;5028596;28;20101;-63
2022/03/10 08:30:13;;;;;;;0.55;0.55;;;;;;;;;;5028927;28;20053;-64
2022/03/10 08:32:40;;;;;;;0.00;0.00;;;;;;;;;;5027647;28;20112;-63
2022/03/10 08:35:05;;;;;;;0.00;0.00;;;;;;;;;;5028542;28;20471;-63
2022/03/10 08:37:30;;;;;;;0.00;0.00;;;;;;;;;;5028265;28;20025;-63
2022/03/10 08:39:56;;;;;;;1.17;0.90;;;;;;;;;;5011037;28;20013;-63
2022/03/10 08:42:21;;;;;;;3.50;3.20;;;;;;;;;;5031384;28;20064;-62
2022/03/10 08:44:46;;;;;;;0.00;0.00;;;;;;;;;;5031559;28;20377;-63
2022/03/10 08:47:12;;;;;;;0.00;0.00;;;;;;;;;;5032283;28;20017;-63
2022/03/10 08:49:37;;;;;;;0.00;0.00;;;;;;;;;;5030194;28;20017;-62
2022/03/10 08:52:02;;;;;;;1.25;1.23;;;;;;;;;;5032379;28;20111;-64
2022/03/10 08:54:27;;;;;;;0.00;0.00;;;;;;;;;;5031791;28;20124;-63
2022/03/10 08:56:53;;;;;;;0.00;0.00;;;;;;;;;;5031508;28;20364;-63
2022/03/10 08:59:18;;;;;;;0.60;0.60;;;;;;;;;;5031546;28;20013;-62
2022/03/10 09:01:43;;;;;;;0.00;0.00;;;;;;;;;;5031220;28;20083;-63
2022/03/10 09:04:08;;;;;;;0.52;0.52;;;;;;;;;;5031900;28;20022;-63
2022/03/10 09:06:34;;;;;;;0.00;0.00;;;;;;;;;;5032289;28;20049;-63
2022/03/10 09:08:59;;;;;;;2.28;1.95;;;;;;;;;;5030561;28;20352;-63
2022/03/10 09:11:24;;;;;;;0.00;0.00;;;;;;;;;;5029607;28;20733;-63
2022/03/10 09:13:50;;;;;;;4.55;0.55;;;;;;;;;;5031740;28;20021;-63
2022/03/10 09:16:16;;;;;;;0.00;0.00;;;;;;;;;;5032017;28;20061;-63
2022/03/10 09:18:41;;;;;;;0.20;0.20;;;;;;;;;;5031683;28;20080;-61
2022/03/10 09:21:07;;;;;;;0.82;0.82;;;;;;;;;;5031497;28;20017;-67
2022/03/10 09:23:32;;;;;;;0.95;0.95;;;;;;;;;;5031022;28;20367;-64
2022/03/10 09:25:57;;;;;;;0.00;0.00;;;;;;;;;;5031691;28;20025;-64
2022/03/10 09:28:22;;;;;;;15.10;14.43;;;;;;;;;;5031189;28;20455;-65
2022/03/10 09:30:48;;;;;;;0.10;0.10;;;;;;;;;;5030642;28;20059;-65
2022/03/10 09:33:13;;;;;;;0.32;0.32;;;;;;;;;;5030553;28;20025;-63
2022/03/10 09:35:38;;;;;;;0.00;0.00;;;;;;;;;;5030710;28;20014;-64
2022/03/10 09:38:03;;;;;;;0.00;0.00;;;;;;;;;;5029727;28;20017;-64
2022/03/10 09:40:29;;;;;;;0.00;0.00;;;;;;;;;;5031171;28;20025;-64
2022/03/10 09:42:55;;;;;;;0.00;0.00;;;;;;;;;;5036308;28;20073;-64
2022/03/10 09:45:20;;;;;;;0.00;0.00;;;;;;;;;;5011399;28;20036;-65
2022/03/10 09:47:46;;;;;;;0.35;0.35;;;;;;;;;;5012742;28;20033;-64
2022/03/10 09:50:13;;;;;;;1.52;1.45;;;;;;;;;;5030976;28;20036;-65
2022/03/10 09:52:39;;;;;;;0.00;0.00;;;;;;;;;;5032963;28;20018;-64
2022/03/10 09:55:05;;;;;;;0.35;0.35;;;;;;;;;;5030069;28;20026;-63
2022/03/10 09:57:33;;;;;;;0.38;0.38;;;;;;;;;;5029959;28;20387;-63
2022/03/10 09:59:59;;;;;;;0.00;0.00;;;;;;;;;;5031332;28;20052;-63
2022/03/10 10:02:24;;;;;;;0.93;0.93;;;;;;;;;;5029951;28;20057;-64
2022/03/10 10:04:51;;;;;;;0.00;0.00;;;;;;;;;;5027629;28;20045;-64
2022/03/10 10:07:21;;;;;;;0.95;0.95;;;;;;;;;;5027513;28;20033;-64
2022/03/10 10:09:52;;;;;;;0.00;0.00;;;;;;;;;;5037564;28;20013;-64
2022/03/10 10:12:17;;;;;;;0.00;0.00;;;;;;;;;;5030236;28;20021;-64
2022/03/10 10:14:44;;;;;;;0.15;0.15;;;;;;;;;;5029732;28;20522;-64
2022/03/10 10:17:10;;;;;;;0.00;0.00;;;;;;;;;;5027272;28;20021;-64
2022/03/10 10:19:35;;;;;;;0.95;0.95;;;;;;;;;;5027689;28;20049;-63
2022/03/10 10:22:07;;;;;;;0.13;0.13;;;;;;;;;;5029019;28;20433;-63
2022/03/10 10:24:32;;;;;;;0.10;0.10;;;;;;;;;;5030169;28;20374;-63
2022/03/10 10:27:10;;;;;;;0.00;0.00;;;;;;;;;;5029374;28;20033;-63
2022/03/10 10:29:44;;;;;;;0.00;0.00;;;;;;;;;;5029972;28;20486;-63
2022/03/10 10:32:09;;;;;;;0.00;0.00;;;;;;;;;;5030691;28;20021;-63
2022/03/10 10:34:35;;;;;;;0.00;0.00;;;;;;;;;;5029194;28;20279;-63
2022/03/10 10:37:00;;;;;;;0.22;0.22;;;;;;;;;;5026956;28;20027;-64
2022/03/10 10:39:25;;;;;;;0.45;0.45;;;;;;;;;;5029460;28;20462;-64
2022/03/10 10:41:50;;;;;;;0.00;0.00;;;;;;;;;;5029705;28;20560;-64
2022/03/10 10:44:25;;;;;;;0.00;0.00;;;;;;;;;;5030504;28;20033;-64
2022/03/10 10:46:59;;;;;;;0.95;0.95;;;;;;;;;;5029243;28;20040;-65
2022/03/10 10:49:24;;;;;;;0.00;0.00;;;;;;;;;;5028793;28;20105;-64
2022/03/10 10:51:53;;;;;;;0.32;0.32;;;;;;;;;;5029899;28;20083;-64
2022/03/10 10:54:23;;;;;;;0.10;0.10;;;;;;;;;;5029122;28;20028;-64
2022/03/10 10:56:49;;;;;;;0.68;0.68;;;;;;;;;;5029291;28;20066;-64
2022/03/10 10:59:31;;;;;;;0.00;0.00;;;;;;;;;;5029470;28;20022;-65
2022/03/10 11:02:26;;;;;;;2.65;1.00;;;;;;;;;;5028629;28;20142;-64
2022/03/10 11:04:51;;;;;;;1.27;1.10;;;;;;;;;;5013119;28;20096;-65
2022/03/10 11:07:17;;;;;;;0.00;0.00;;;;;;;;;;5029697;28;20049;-64
2022/03/10 11:09:43;;;;;;;0.15;0.15;;;;;;;;;;5027652;28;20025;-64
2022/03/10 11:12:10;;;;;;;2.53;0.85;;;;;;;;;;5029738;28;20033;-64
2022/03/10 11:14:36;;;;;;;7.13;1.85;;;;;;;;;;5032398;28;20026;-64
2022/03/10 11:17:01;;;;;;;0.30;0.30;;;;;;;;;;5029483;28;20025;-62
2022/03/10 11:19:29;;;;;;;0.43;0.43;;;;;;;;;;5013985;28;20120;-63
2022/03/10 11:22:12;;;;;;;1.48;1.38;;;;;;;;;;5029387;28;20030;-64
2022/03/10 11:24:56;;;;;;;0.10;0.10;;;;;;;;;;5028635;28;20702;-63
2022/03/10 11:27:24;;;;;;;0.40;0.25;;;;;;;;;;5026678;28;20025;-64
2022/03/10 11:29:51;;;;;;;0.55;0.55;;;;;;;;;;5031946;28;20584;-64
2022/03/10 11:32:16;;;;;;;0.00;0.00;;;;;;;;;;5028586;28;20075;-65
2022/03/10 11:34:46;;;;;;;13.40;2.00;;;;;;;;;;5026751;28;20029;-64
2022/03/10 11:37:12;;;;;;;0.00;0.00;;;;;;;;;;5028379;28;20030;-64
2022/03/10 11:39:53;;;;;;;0.00;0.00;;;;;;;;;;5027841;28;20533;-63
2022/03/10 11:42:26;;;;;;;0.20;0.20;;;;;;;;;;5034858;28;20064;-65
2022/03/10 11:45:11;;;;;;;0.00;0.00;;;;;;;;;;5029762;28;20033;-64
2022/03/10 11:47:38;;;;;;;2.70;1.58;;;;;;;;;;5018846;28;20030;-64
2022/03/10 11:50:24;;;;;;;0.70;0.70;;;;;;;;;;5028108;28;20528;-65
2022/03/10 11:52:57;;;;;;;1.10;1.00;;;;;;;;;;5027619;28;20053;-64
2022/03/10 11:55:22;;;;;;;4.47;0.40;;;;;;;;;;5027226;28;20027;-64
2022/03/10 11:58:04;;;;;;;3.83;1.65;;;;;;;;;;5027848;28;20021;-64
2022/03/10 12:00:51;;;;;;;0.90;0.90;;;;;;;;;;5027777;28;20021;-65
2022/03/10 12:03:36;;;;;;;3.58;1.35;;;;;;;;;;5020135;28;20032;-64
2022/03/10 12:06:03;;;;;;;29.83;2.40;;;;;;;;;;5028132;28;20021;-65
2022/03/10 12:08:29;;;;;;;0.45;0.32;;;;;;;;;;5034496;28;20025;-64
2022/03/10 12:10:55;;;;;;;1.70;1.60;;;;;;;;;;5028832;28;20053;-65
2022/03/10 12:13:21;;;;;;;0.90;0.90;;;;;;;;;;5028272;28;20013;-64
2022/03/10 12:15:47;;;;;;;2.67;2.05;;;;;;;;;;5028132;28;20029;-63
2022/03/10 12:18:13;;;;;;;3.53;1.27;;;;;;;;;;5028237;28;20529;-63
2022/03/10 12:20:39;;;;;;;1.73;1.42;;;;;;;;;;5005836;28;20050;-64
2022/03/10 12:23:15;;;;;;;2.20;1.88;;;;;;;;;;5007781;28;20458;-64
2022/03/10 12:25:40;;;;;;;2.08;1.52;;;;;;;;;;5008211;28;20526;-63
2022/03/10 12:28:06;;;;;;;5.38;1.35;;;;;;;;;;5008168;28;20033;-63
2022/03/10 12:30:31;;;;;;;2.45;1.30;;;;;;;;;;5005197;28;20069;-64
2022/03/10 12:32:57;;;;;;;0.28;0.28;;;;;;;;;;5007019;28;20025;-64
2022/03/10 12:35:26;;;;;;;0.95;0.95;;;;;;;;;;5008210;28;20551;-64
2022/03/10 12:37:52;;;;;;;2.40;1.17;;;;;;;;;;5008761;28;20025;-64
2022/03/10 12:40:25;;;;;;;0.70;0.68;;;;;;;;;;5008355;28;20029;-63
2022/03/10 12:42:51;;;;;;;1.15;1.10;;;;;;;;;;5006825;28;20037;-64
2022/03/10 12:45:20;;;;;;;1.13;0.70;;;;;;;;;;5007988;28;20105;-63
2022/03/10 12:47:49;;;;;;;0.70;0.70;;;;;;;;;;5007012;28;20042;-63
2022/03/10 12:50:15;;;;;;;1.10;1.05;;;;;;;;;;5008076;28;20049;-64
2022/03/10 12:52:40;;;;;;;2.17;1.02;;;;;;;;;;5006554;28;20149;-63
2022/03/10 12:55:06;;;;;;;0.90;0.47;;;;;;;;;;5007105;28;20021;-63
2022/03/10 12:57:34;;;;;;;0.00;0.00;;;;;;;;;;5007168;28;20010;-64
2022/03/10 13:00:00;;;;;;;0.30;0.30;;;;;;;;;;5005884;28;20104;-64
2022/03/10 13:02:29;;;;;;;0.32;0.32;;;;;;;;;;5006231;28;20025;-64
2022/03/10 13:05:01;;;;;;;0.38;0.38;;;;;;;;;;5007653;28;20022;-64
2022/03/10 13:07:29;;;;;;;1.30;1.30;;;;;;;;;;5007914;28;20155;-63
2022/03/10 13:09:54;;;;;;;1.65;1.15;;;;;;;;;;5007295;28;20033;-63
2022/03/10 13:12:39;;;;;;;0.70;0.63;;;;;;;;;;5006366;28;20038;-63
2022/03/10 13:15:07;;;;;;;1.60;0.70;;;;;;;;;;5006968;28;20026;-64
2022/03/10 13:17:40;;;;;;;3.15;0.93;;;;;;;;;;5005686;28;20021;-63
2022/03/10 13:20:08;;;;;;;1.58;1.48;;;;;;;;;;5021216;28;20119;-64
2022/03/10 13:22:33;;;;;;;2.50;0.88;;;;;;;;;;5025698;28;20017;-64
2022/03/10 13:24:59;;;;;;;1.85;1.70;;;;;;;;;;5026237;28;20043;-64
2022/03/10 13:27:26;;;;;;;6.10;5.55;;;;;;;;;;5027792;28;20036;-64
2022/03/10 13:29:52;;;;;;;13.15;6.15;;;;;;;;;;5028646;28;20474;-64
2022/03/10 13:32:17;;;;;;;5.13;2.47;;;;;;;;;;5030484;28;20021;-65
2022/03/10 13:34:43;;;;;;;7.55;5.78;;;;;;;;;;5030928;28;20076;-65
2022/03/10 13:37:09;;;;;;;2.03;1.92;;;;;;;;;;5030741;28;20122;-65
2022/03/10 13:39:36;;;;;;;3.70;2.58;;;;;;;;;;5030410;28;20466;-64
2022/03/10 13:42:02;;;;;;;8.05;4.00;;;;;;;;;;5030647;28;20025;-64
2022/03/10 13:44:28;;;;;;;2.95;2.60;;;;;;;;;;5026920;28;20026;-64
2022/03/10 13:47:06;;;;;;;8.38;5.32;;;;;;;;;;5030093;28;20037;-63
2022/03/10 13:49:40;;;;;;;1.75;1.65;;;;;;;;;;5029271;28;20032;-63
2022/03/10 13:52:09;;;;;;;1.67;1.58;;;;;;;;;;5028690;28;20025;-63
2022/03/10 13:54:37;;;;;;;2.60;2.50;;;;;;;;;;5029482;28;20021;-63
2022/03/10 13:57:02;;;;;;;1.05;1.05;;;;;;;;;;5028610;28;20104;-64
2022/03/10 13:59:28;;;;;;;2.15;2.05;;;;;;;;;;5029190;28;20147;-63
2022/03/10 14:01:53;;;;;;;3.13;2.97;;;;;;;;;;5029448;28;20023;-62
2022/03/10 14:04:18;;;;;;;1.30;1.23;;;;;;;;;;5029941;28;20037;-62
2022/03/10 14:06:48;;;;;;;3.03;1.13;;;;;;;;;;5029513;28;20079;-63
2022/03/10 14:09:16;;;;;;;2.90;2.55;;;;;;;;;;5029591;28;20072;-63
2022/03/10 14:11:41;;;;;;;0.60;0.55;;;;;;;;;;5028928;28;20056;-63
2022/03/10 14:14:06;;;;;;;0.20;0.20;;;;;;;;;;5029406;28;20079;-64
2022/03/10 14:16:32;;;;;;;0.45;0.25;;;;;;;;;;5011474;28;20032;-63
2022/03/10 14:18:57;;;;;;;1.23;1.23;;;;;;;;;;5029129;28;20852;-63
2022/03/10 14:21:22;;;;;;;0.43;0.25;;;;;;;;;;5029150;28;20025;-63
2022/03/10 14:24:14;;;;;;;0.32;0.32;;;;;;;;;;5030243;28;20504;-63
2022/03/10 14:26:41;;;;;;;0.65;0.55;;;;;;;;;;5023503;28;20038;-62
2022/03/10 14:29:08;;;;;;;0.43;0.43;;;;;;;;;;5028836;28;20029;-63
2022/03/10 14:31:33;;;;;;;1.23;1.23;;;;;;;;;;5029049;28;20109;-63
2022/03/10 14:33:58;;;;;;;6.75;1.63;;;;;;;;;;5028925;28;20112;-63
2022/03/10 14:36:24;;;;;;;1.38;1.27;;;;;;;;;;5027931;28;20021;-62
2022/03/10 14:38:49;;;;;;;2.50;0.75;;;;;;;;;;5027390;28;20021;-61
2022/03/10 14:41:19;;;;;;;0.60;0.60;;;;;;;;;;5030033;28;20096;-63
2022/03/10 14:43:44;;;;;;;;;;;;;;;;;;5029497;28;20018;-63